Time;durP1;ratioP1;P1;durP2;ratioP2;P2;SDS_P1;SDS_P2;PMS_P1;PMS_P2;Temp;Humidity;BMP_temperature;BMP_pressure;BME280_temperature;BME280_humidity;BME280_pressure;Samples;Min_cycle;Max_cycle;Signal;HPM_P1;HPM_P2
2022/05/08 00:00:27;;;;;;;18.30;12.98;;;;;;;10.97;86.39;102593.78;7386525;19;20340;-60
2022/05/08 00:02:57;;;;;;;20.08;12.98;;;;;;;10.82;86.56;102595.75;7388130;19;20053;-68
2022/05/08 00:05:26;;;;;;;23.30;12.50;;;;;;;10.78;86.53;102591.47;7386658;19;20379;-60
2022/05/08 00:07:57;;;;;;;19.45;13.45;;;;;;;10.75;87.01;102602.00;7388849;19;20309;-61
2022/05/08 00:10:26;;;;;;;18.33;12.45;;;;;;;10.72;87.23;102602.91;7386936;19;20018;-61
2022/05/08 00:12:55;;;;;;;21.88;13.50;;;;;;;10.76;86.50;102605.47;7387935;19;20037;-60
2022/05/08 00:15:24;;;;;;;27.17;13.55;;;;;;;10.73;86.26;102595.91;7388031;19;20434;-61
2022/05/08 00:17:56;;;;;;;22.73;13.38;;;;;;;10.72;86.50;102597.66;7388650;19;20003;-62
2022/05/08 00:20:27;;;;;;;23.00;12.63;;;;;;;10.74;86.26;102595.00;7386863;19;20018;-60
2022/05/08 00:22:59;;;;;;;19.42;12.98;;;;;;;10.77;86.80;102594.09;7387686;19;20018;-60
2022/05/08 00:25:28;;;;;;;25.58;14.00;;;;;;;10.80;86.48;102594.06;7387429;19;20015;-60
2022/05/08 00:27:57;;;;;;;19.95;13.35;;;;;;;10.64;87.24;102588.19;7387276;19;20014;-61
2022/05/08 00:30:26;;;;;;;23.65;13.48;;;;;;;10.40;87.56;102595.53;7386403;19;20015;-60
2022/05/08 00:32:55;;;;;;;21.75;13.82;;;;;;;10.44;87.26;102588.50;7387486;19;20010;-61
2022/05/08 00:35:24;;;;;;;19.25;12.75;;;;;;;10.46;87.23;102590.22;7387710;19;20015;-61
2022/05/08 00:37:53;;;;;;;22.58;13.43;;;;;;;10.66;86.82;102589.91;7387289;19;20041;-59
2022/05/08 00:40:24;;;;;;;22.27;13.75;;;;;;;10.60;86.34;102594.38;7386113;19;20022;-61
2022/05/08 00:42:53;;;;;;;25.35;13.35;;;;;;;10.49;86.64;102589.31;7387270;19;20019;-60
2022/05/08 00:45:22;;;;;;;25.48;13.20;;;;;;;10.36;87.24;102589.50;7386375;19;20340;-60
2022/05/08 00:47:51;;;;;;;23.13;13.73;;;;;;;10.62;86.40;102590.00;7387535;19;20027;-62
2022/05/08 00:50:20;;;;;;;23.17;13.45;;;;;;;10.61;85.75;102594.34;7385993;19;20024;-60
2022/05/08 00:52:48;;;;;;;23.23;12.95;;;;;;;10.55;85.68;102592.69;7385663;19;20021;-59
2022/05/08 00:55:17;;;;;;;20.48;12.90;;;;;;;10.43;85.60;102594.63;7386557;19;20018;-60
2022/05/08 00:57:49;;;;;;;22.50;11.70;;;;;;;10.33;85.70;102589.50;7386979;19;20494;-60
2022/05/08 01:00:19;;;;;;;21.50;12.75;;;;;;;10.35;84.66;102600.84;7385852;19;20056;-60
2022/05/08 01:02:48;;;;;;;24.23;11.48;;;;;;;10.30;83.79;102588.66;7386766;19;20460;-60
2022/05/08 01:05:17;;;;;;;24.35;11.45;;;;;;;10.20;84.69;102590.56;7387485;19;20017;-60
2022/05/08 01:07:47;;;;;;;18.75;10.60;;;;;;;10.22;84.10;102583.56;7387903;19;20053;-61
2022/05/08 01:10:17;;;;;;;20.27;10.77;;;;;;;10.19;83.48;102602.78;7393384;19;20035;-61
2022/05/08 01:12:48;;;;;;;21.08;9.93;;;;;;;10.05;83.96;102594.25;7395346;19;20021;-59
2022/05/08 01:15:18;;;;;;;23.73;10.48;;;;;;;10.04;83.48;102603.88;7395563;19;20022;-60
2022/05/08 01:17:48;;;;;;;24.17;9.70;;;;;;;10.09;84.05;102598.56;7395530;19;20491;-61
2022/05/08 01:20:17;;;;;;;28.15;10.70;;;;;;;10.11;82.56;102598.56;7393913;19;20487;-62
2022/05/08 01:22:49;;;;;;;20.85;8.98;;;;;;;10.18;82.55;102606.28;7394303;19;20015;-61
2022/05/08 01:25:19;;;;;;;20.77;9.32;;;;;;;10.10;82.14;102607.28;7393236;19;20435;-61
2022/05/08 01:27:48;;;;;;;21.80;9.13;;;;;;;9.91;82.27;102610.16;7394139;19;20635;-61
2022/05/08 01:30:17;;;;;;;24.23;9.15;;;;;;;9.95;81.68;102603.13;7392789;19;20018;-61
2022/05/08 01:32:46;;;;;;;24.65;10.15;;;;;;;9.94;82.03;102614.47;7394141;19;20015;-59
2022/05/08 01:35:15;;;;;;;24.33;9.80;;;;;;;9.84;81.24;102603.25;7393908;19;20480;-60
2022/05/08 01:37:44;;;;;;;28.13;9.75;;;;;;;10.00;81.13;102609.16;7394146;19;20082;-61
2022/05/08 01:40:17;;;;;;;20.52;8.77;;;;;;;9.75;81.15;102619.09;7392220;19;20112;-60
2022/05/08 01:42:46;;;;;;;25.83;9.10;;;;;;;9.87;80.52;102614.56;7394461;19;20021;-61
2022/05/08 01:45:16;;;;;;;27.42;9.25;;;;;;;9.87;80.96;102616.31;7393262;19;20078;-61
2022/05/08 01:50:26;;;;;;;26.13;8.48;;;;;;;9.96;80.46;102620.59;7392622;19;20107;-61
2022/05/08 01:52:55;;;;;;;26.85;8.00;;;;;;;9.62;80.49;102629.69;7393611;19;20433;-61
2022/05/08 01:55:26;;;;;;;21.55;7.00;;;;;;;9.66;80.75;102627.91;7393632;19;20010;-60
2022/05/08 01:57:56;;;;;;;24.13;7.25;;;;;;;9.82;80.62;102612.88;7393384;19;20056;-61
2022/05/08 02:00:25;;;;;;;21.85;6.93;;;;;;;9.78;80.44;102617.28;7392310;19;20019;-61
2022/05/08 02:02:55;;;;;;;23.90;7.57;;;;;;;9.69;80.27;102623.50;7393618;19;20018;-59
2022/05/08 02:05:25;;;;;;;26.90;7.45;;;;;;;9.71;79.95;102631.34;7393027;19;20021;-59
2022/05/08 02:07:54;;;;;;;21.77;6.80;;;;;;;9.72;80.15;102634.84;7393274;19;20344;-59
2022/05/08 02:10:23;;;;;;;23.05;6.47;;;;;;;9.81;79.67;102642.56;7391457;19;20022;-61
2022/05/08 02:12:55;;;;;;;29.02;7.18;;;;;;;9.76;79.43;102636.53;7392431;19;20045;-60
2022/05/08 02:15:29;;;;;;;26.15;7.43;;;;;;;9.73;79.60;102634.81;7392761;19;20014;-60
2022/05/08 02:18:01;;;;;;;25.15;7.10;;;;;;;9.68;80.35;102640.06;7394587;19;20543;-59
2022/05/08 02:20:30;;;;;;;23.50;6.55;;;;;;;9.69;79.81;102639.19;7391750;19;20353;-59
2022/05/08 02:23:00;;;;;;;24.10;6.80;;;;;;;9.52;80.82;102639.38;7393600;19;20011;-57
2022/05/08 02:25:30;;;;;;;29.48;6.80;;;;;;;9.48;80.58;102639.44;7392723;19;20019;-58
2022/05/08 02:28:02;;;;;;;23.42;6.72;;;;;;;9.57;80.35;102638.47;7393453;19;20062;-59
2022/05/08 02:30:31;;;;;;;24.42;7.03;;;;;;;9.36;81.01;102629.97;7392342;19;20021;-59
2022/05/08 02:33:00;;;;;;;24.67;7.30;;;;;;;9.29;81.86;102637.00;7392574;19;20014;-60
2022/05/08 02:35:29;;;;;;;25.33;7.32;;;;;;;9.51;81.34;102642.91;7392768;19;20018;-59
2022/05/08 02:37:58;;;;;;;22.25;6.60;;;;;;;9.50;80.55;102627.22;7392397;19;20058;-59
2022/05/08 02:40:27;;;;;;;26.63;7.15;;;;;;;9.35;81.52;102631.69;7391779;19;20479;-57
2022/05/08 02:42:56;;;;;;;23.92;6.93;;;;;;;9.47;81.82;102637.69;7391663;19;20018;-60
2022/05/08 02:45:28;;;;;;;27.13;7.45;;;;;;;9.51;81.35;102628.94;7391604;19;20019;-59
2022/05/08 02:47:57;;;;;;;26.35;6.97;;;;;;;9.33;81.04;102633.47;7389124;19;20018;-58
2022/05/08 02:50:26;;;;;;;27.63;7.47;;;;;;;9.43;81.03;102636.03;7390391;19;20018;-59
2022/05/08 02:52:55;;;;;;;25.17;6.38;;;;;;;9.31;80.80;102642.22;7393111;19;20024;-61
2022/05/08 03:00:50;;;;;;;25.98;8.07;;;;;;;9.30;81.85;102643.13;7390053;19;20022;-59
2022/05/08 03:03:19;;;;;;;23.98;6.65;;;;;;;9.20;82.09;102637.09;7391728;19;20011;-60
2022/05/08 03:05:49;;;;;;;32.25;7.50;;;;;;;9.30;81.57;102641.34;7391051;19;20082;-59
2022/05/08 03:08:19;;;;;;;27.27;6.70;;;;;;;9.28;81.18;102635.25;7391286;19;20173;-57
2022/05/08 03:13:31;;;;;;;24.42;6.28;;;;;;;9.22;80.95;102642.31;7391345;19;20010;-61
2022/05/08 03:16:02;;;;;;;22.55;6.32;;;;;;;9.21;80.94;102641.44;7391393;19;20025;-59
2022/05/08 03:18:31;;;;;;;25.15;5.90;;;;;;;9.11;81.51;102631.94;7390954;19;20022;-56
2022/05/08 03:21:00;;;;;;;22.48;6.45;;;;;;;9.17;81.01;102642.38;7388540;19;20025;-57
2022/05/08 03:23:30;;;;;;;26.58;5.65;;;;;;;8.98;81.07;102645.13;7391877;19;20014;-58
2022/05/08 03:26:00;;;;;;;24.27;6.35;;;;;;;9.08;80.93;102642.44;7390537;19;20467;-57
2022/05/08 03:28:29;;;;;;;26.63;6.65;;;;;;;9.05;81.43;102640.69;7391535;19;20448;-59
2022/05/08 03:30:58;;;;;;;28.33;6.05;;;;;;;9.16;80.66;102641.47;7387703;19;20022;-57
2022/05/08 03:33:30;;;;;;;31.35;7.32;;;;;;;9.05;81.13;102647.69;7390738;19;20098;-60
2022/05/08 03:36:00;;;;;;;28.45;6.90;;;;;;;9.03;81.59;102650.31;7390176;19;20456;-60
2022/05/08 03:38:30;;;;;;;24.80;5.88;;;;;;;8.90;81.29;102652.16;7389868;19;20015;-60
2022/05/08 03:40:59;;;;;;;19.58;6.32;;;;;;;9.19;80.77;102648.44;7388460;19;20039;-59
2022/05/08 03:43:28;;;;;;;23.20;6.25;;;;;;;9.14;80.97;102653.72;7389577;19;20014;-59
2022/05/08 03:45:57;;;;;;;23.45;6.38;;;;;;;9.14;81.60;102658.06;7389755;19;20010;-59
2022/05/08 03:48:26;;;;;;;30.48;6.47;;;;;;;9.04;81.78;102666.88;7390461;19;20018;-58
2022/05/08 03:50:58;;;;;;;27.35;6.75;;;;;;;8.98;81.23;102659.94;7386957;19;20025;-59
2022/05/08 03:53:26;;;;;;;21.60;6.33;;;;;;;9.04;81.97;102667.75;7389468;19;20053;-58
2022/05/08 03:55:55;;;;;;;23.90;6.10;;;;;;;8.76;81.67;102667.09;7389556;19;20010;-60
2022/05/08 03:58:24;;;;;;;25.05;5.97;;;;;;;8.67;82.00;102668.03;7387958;19;20006;-60
2022/05/08 04:00:53;;;;;;;28.42;6.50;;;;;;;8.89;81.72;102662.63;7387424;19;20025;-58
2022/05/08 04:03:22;;;;;;;22.75;5.90;;;;;;;8.81;81.31;102670.50;7386478;19;20019;-59
2022/05/08 04:05:51;;;;;;;30.85;6.38;;;;;;;9.02;82.08;102668.63;7390094;19;20026;-60
2022/05/08 04:08:22;;;;;;;27.48;6.28;;;;;;;8.77;82.12;102667.06;7390838;19;20014;-60
2022/05/08 04:10:51;;;;;;;22.05;6.20;;;;;;;8.80;81.37;102671.41;7388608;19;20018;-59
2022/05/08 04:13:20;;;;;;;26.77;6.68;;;;;;;8.82;82.24;102667.88;7388973;19;20011;-58
2022/05/08 04:18:31;;;;;;;23.92;6.40;;;;;;;8.61;82.03;102666.31;7388637;19;20021;-59
2022/05/08 04:21:00;;;;;;;22.30;5.97;;;;;;;8.73;82.36;102665.34;7388179;19;20030;-59
2022/05/08 04:26:12;;;;;;;26.60;6.43;;;;;;;8.86;82.12;102679.22;7388668;19;20026;-60
2022/05/08 04:28:41;;;;;;;23.73;6.28;;;;;;;8.70;82.11;102673.22;7388822;19;20381;-58
2022/05/08 04:31:10;;;;;;;27.40;6.18;;;;;;;8.68;82.43;102680.19;7387503;19;20019;-60
2022/05/08 04:33:39;;;;;;;25.92;6.85;;;;;;;8.54;82.11;102685.50;7389214;19;20018;-55
2022/05/08 04:36:08;;;;;;;29.30;5.93;;;;;;;8.68;82.38;102684.56;7388845;19;20010;-59
2022/05/08 04:38:40;;;;;;;28.10;6.57;;;;;;;8.93;82.30;102687.88;7389811;19;20480;-62
2022/05/08 04:41:08;;;;;;;24.73;5.85;;;;;;;8.61;82.25;102691.56;7387351;19;20468;-58
2022/05/08 04:43:37;;;;;;;23.13;6.00;;;;;;;8.46;82.33;102688.16;7393766;19;20014;-62
2022/05/08 04:46:06;;;;;;;30.33;6.72;;;;;;;8.30;82.64;102686.47;7396038;19;20011;-60
2022/05/08 04:48:35;;;;;;;25.95;6.30;;;;;;;8.63;83.24;102688.06;7396482;19;20377;-59
2022/05/08 04:51:04;;;;;;;24.80;6.07;;;;;;;8.61;82.39;102696.78;7394142;19;20022;-57
2022/05/08 04:53:33;;;;;;;22.27;6.35;;;;;;;8.27;82.92;102689.09;7396620;19;20018;-58
2022/05/08 04:56:05;;;;;;;23.90;6.22;;;;;;;8.30;82.83;102700.38;7395988;19;20086;-59
2022/05/08 04:58:34;;;;;;;29.13;7.28;;;;;;;8.46;82.67;102692.53;7396497;19;20018;-60
2022/05/08 05:01:02;;;;;;;21.35;5.95;;;;;;;8.63;82.50;102700.28;7393831;19;20014;-56
2022/05/08 05:03:33;;;;;;;24.27;6.55;;;;;;;8.47;82.42;102699.50;7396430;19;20015;-56
2022/05/08 05:06:01;;;;;;;29.33;7.05;;;;;;;8.59;82.17;102698.53;7394907;19;20018;-56
2022/05/08 05:08:30;;;;;;;27.63;7.00;;;;;;;8.52;82.81;102702.94;7395591;19;20015;-59
2022/05/08 05:10:59;;;;;;;24.23;5.93;;;;;;;8.51;81.95;102703.81;7394430;19;20496;-60
2022/05/08 05:13:31;;;;;;;23.13;6.40;;;;;;;8.46;82.12;102706.44;7395773;19;20022;-60
2022/05/08 05:16:00;;;;;;;24.63;6.38;;;;;;;8.42;82.29;102704.69;7396203;19;20023;-60
2022/05/08 05:18:28;;;;;;;24.50;6.30;;;;;;;8.59;81.93;102715.09;7395391;19;20014;-60
2022/05/08 05:20:57;;;;;;;30.55;6.60;;;;;;;8.80;81.15;102708.00;7393369;19;20019;-59
2022/05/08 05:23:27;;;;;;;22.33;5.68;;;;;;;8.83;80.70;102719.31;7395596;19;20021;-60
2022/05/08 05:25:56;;;;;;;17.85;5.57;;;;;;;8.87;80.81;102725.41;7395672;19;20011;-62
2022/05/08 05:28:25;;;;;;;19.90;5.63;;;;;;;8.78;80.59;102722.81;7395537;19;20019;-61
2022/05/08 05:30:56;;;;;;;25.50;6.38;;;;;;;8.56;80.34;102724.69;7393420;19;20021;-61
2022/05/08 05:33:25;;;;;;;18.15;5.32;;;;;;;8.87;80.34;102727.13;7396433;19;20025;-61
2022/05/08 05:35:54;;;;;;;22.92;5.93;;;;;;;8.78;80.25;102725.44;7396454;19;20011;-60
2022/05/08 05:38:22;;;;;;;23.00;5.80;;;;;;;8.92;79.13;102726.22;7395923;19;20010;-60
2022/05/08 05:40:54;;;;;;;22.23;5.85;;;;;;;8.87;78.39;102729.72;7393522;19;20053;-60
2022/05/08 05:43:23;;;;;;;24.55;6.20;;;;;;;8.81;78.57;102733.25;7394919;19;20361;-60
2022/05/08 05:47:49;;;;;;;26.48;6.05;;;;;;;8.82;78.81;102740.22;7394975;19;20011;-60
2022/05/08 05:48:41;;;;;;;17.08;5.15;;;;;;;8.96;78.71;102746.22;7394423;19;20015;-61
2022/05/08 05:51:09;;;;;;;20.15;5.32;;;;;;;9.01;77.15;102748.81;7392654;19;20341;-60
2022/05/08 05:53:38;;;;;;;20.25;5.70;;;;;;;9.14;77.85;102746.97;7394459;19;20010;-61
2022/05/08 05:56:09;;;;;;;22.90;6.05;;;;;;;9.13;76.53;102745.28;7392409;19;20030;-61
2022/05/08 05:58:38;;;;;;;25.27;6.05;;;;;;;9.33;76.22;102745.97;7394416;19;20086;-60
2022/05/08 06:01:07;;;;;;;24.38;6.03;;;;;;;9.27;76.50;102747.75;7392071;19;20018;-60
2022/05/08 06:03:38;;;;;;;23.20;5.65;;;;;;;9.40;75.37;102751.16;7395709;19;20393;-61
2022/05/08 06:06:09;;;;;;;24.30;5.43;;;;;;;9.19;75.36;102750.44;7394729;19;20030;-61
2022/05/08 06:08:38;;;;;;;24.98;5.07;;;;;;;9.39;74.92;102759.91;7391238;19;20018;-59
2022/05/08 06:11:07;;;;;;;26.13;5.68;;;;;;;9.23;74.64;102762.63;7391441;19;20015;-60
2022/05/08 06:13:36;;;;;;;15.27;4.80;;;;;;;9.34;74.19;102763.41;7393689;19;20029;-61
2022/05/08 06:16:05;;;;;;;22.48;5.70;;;;;;;9.35;74.39;102761.66;7393282;19;20026;-60
2022/05/08 06:18:34;;;;;;;19.80;4.80;;;;;;;9.64;74.14;102769.28;7393570;19;20018;-61
2022/05/08 06:21:03;;;;;;;22.27;4.75;;;;;;;9.65;73.47;102772.75;7391439;19;20018;-60
2022/05/08 06:23:35;;;;;;;24.55;5.53;;;;;;;9.59;72.89;102778.91;7392960;19;20054;-61
2022/05/08 06:26:05;;;;;;;24.33;4.90;;;;;;;9.59;74.09;102781.53;7393730;19;20011;-60
2022/05/08 06:28:34;;;;;;;22.17;5.70;;;;;;;9.57;74.18;102780.69;7390688;19;20018;-61
2022/05/08 06:31:03;;;;;;;21.52;5.28;;;;;;;9.77;72.70;102777.88;7390954;19;20021;-60
2022/05/08 06:33:34;;;;;;;17.88;4.57;;;;;;;9.78;72.38;102779.59;7392692;19;20048;-61
2022/05/08 06:36:03;;;;;;;17.50;4.38;;;;;;;9.85;71.96;102777.81;7392850;19;20018;-61
2022/05/08 06:38:34;;;;;;;16.60;4.95;;;;;;;9.78;70.82;102786.59;7393131;19;20019;-61
2022/05/08 06:41:03;;;;;;;19.02;4.57;;;;;;;9.97;71.01;102787.28;7391594;19;20475;-61
2022/05/08 06:43:32;;;;;;;15.23;4.82;;;;;;;10.15;69.67;102787.09;7393006;19;20014;-61
2022/05/08 06:46:01;;;;;;;20.00;4.63;;;;;;;10.09;69.97;102784.56;7392824;19;20056;-61
2022/05/08 06:48:31;;;;;;;19.65;4.10;;;;;;;10.17;70.20;102780.09;7391082;19;20011;-60
2022/05/08 06:50:59;;;;;;;16.63;3.80;;;;;;;10.34;70.26;102786.94;7390377;19;20014;-60
2022/05/08 06:53:29;;;;;;;18.63;3.92;;;;;;;10.27;68.41;102788.69;7393183;19;20021;-61
2022/05/08 06:56:00;;;;;;;13.10;4.25;;;;;;;10.46;68.85;102786.78;7392965;19;20015;-62
2022/05/08 06:58:29;;;;;;;17.80;4.45;;;;;;;10.39;68.60;102791.22;7392273;19;20025;-61
2022/05/08 07:03:41;;;;;;;14.07;3.80;;;;;;;10.52;66.87;102797.19;7393324;19;20015;-61
2022/05/08 07:06:10;;;;;;;15.55;3.70;;;;;;;10.48;66.17;102784.16;7360320;19;20026;-60
2022/05/08 07:08:39;;;;;;;13.68;3.60;;;;;;;10.56;66.66;102793.66;7389145;19;20025;-61
2022/05/08 07:11:10;;;;;;;17.08;3.55;;;;;;;10.69;66.73;102783.03;7389863;19;20010;-60
2022/05/08 07:13:39;;;;;;;15.75;3.85;;;;;;;10.58;66.42;102796.25;7391849;19;20014;-59
2022/05/08 07:16:08;;;;;;;17.70;3.97;;;;;;;10.70;65.79;102796.09;7391714;19;20007;-59
2022/05/08 07:18:37;;;;;;;17.05;3.78;;;;;;;10.58;65.70;102792.78;7390538;19;20029;-60
2022/05/08 07:21:07;;;;;;;18.17;4.03;;;;;;;10.90;66.59;102781.84;7389990;19;20104;-60
2022/05/08 07:23:35;;;;;;;17.23;4.20;;;;;;;11.02;65.45;102791.31;7391451;19;20023;-61
2022/05/08 07:26:05;;;;;;;17.15;3.83;;;;;;;11.07;65.01;102790.34;7391314;19;20018;-61
2022/05/08 07:28:36;;;;;;;18.02;4.18;;;;;;;11.34;64.77;102780.31;7389607;19;20046;-60
2022/05/08 07:31:06;;;;;;;12.63;3.67;;;;;;;11.33;64.80;102791.69;7389307;19;20023;-60
2022/05/08 07:33:38;;;;;;;14.45;4.00;;;;;;;11.48;64.56;102792.38;7391338;19;20050;-61
2022/05/08 07:36:14;;;;;;;9.13;3.50;;;;;;;11.03;63.32;102790.41;7391472;19;20022;-61
2022/05/08 07:38:45;;;;;;;17.67;4.72;;;;;;;11.19;64.17;102791.94;7390990;19;20266;-62
2022/05/08 07:41:14;;;;;;;11.32;3.83;;;;;;;11.57;63.18;102802.69;7389262;19;20022;-62
2022/05/08 07:43:47;;;;;;;16.48;3.85;;;;;;;11.71;62.88;102795.47;7391477;19;20766;-62
2022/05/08 07:46:17;;;;;;;13.68;3.72;;;;;;;11.48;61.75;102793.22;7391885;19;20054;-58
2022/05/08 07:48:46;;;;;;;12.65;3.80;;;;;;;11.83;61.86;102804.88;7389410;19;20396;-59
2022/05/08 07:51:14;;;;;;;12.55;3.50;;;;;;;11.92;62.62;102807.34;7388889;19;20014;-60
2022/05/08 07:53:43;;;;;;;16.73;3.78;;;;;;;11.93;61.58;102811.75;7392265;19;20011;-61
2022/05/08 07:56:12;;;;;;;16.70;4.38;;;;;;;11.88;62.69;102807.44;7391378;19;20018;-61
2022/05/08 07:58:41;;;;;;;14.30;4.00;;;;;;;11.59;62.53;102809.66;7391229;19;20025;-61
2022/05/08 08:01:13;;;;;;;20.48;4.40;;;;;;;11.76;62.65;102801.50;7389974;19;20029;-60
2022/05/08 08:03:42;;;;;;;19.90;3.90;;;;;;;11.84;61.00;102808.38;7391512;19;20018;-58
2022/05/08 08:06:11;;;;;;;11.77;3.72;;;;;;;12.06;60.96;102808.88;7390568;19;20157;-61
2022/05/08 08:08:40;;;;;;;12.82;3.83;;;;;;;12.00;61.15;102809.84;7389198;19;20058;-61
2022/05/08 08:11:11;;;;;;;11.77;3.58;;;;;;;11.96;61.17;102804.69;7388346;19;20472;-60
2022/05/08 08:13:40;;;;;;;11.48;3.60;;;;;;;12.10;61.22;102808.78;7390691;19;20016;-61
2022/05/08 08:16:12;;;;;;;12.88;3.40;;;;;;;12.11;59.61;102810.53;7390150;19;20020;-59
2022/05/08 08:18:44;;;;;;;19.58;4.32;;;;;;;12.37;60.82;102814.41;7389879;19;20476;-61
2022/05/08 08:21:13;;;;;;;15.32;3.50;;;;;;;12.26;59.33;102811.13;7388045;19;20026;-61
2022/05/08 08:23:44;;;;;;;14.85;3.67;;;;;;;12.45;58.49;102817.78;7389692;19;20021;-61
2022/05/08 08:26:14;;;;;;;12.40;3.40;;;;;;;12.52;58.14;102818.53;7389463;19;20029;-60
2022/05/08 08:28:43;;;;;;;15.38;4.07;;;;;;;12.51;58.19;102810.63;7388345;19;20015;-61
2022/05/08 08:31:15;;;;;;;16.52;3.97;;;;;;;12.21;58.97;102816.50;7388156;19;20006;-58
2022/05/08 08:33:45;;;;;;;12.40;4.10;;;;;;;12.91;58.55;102813.31;7389986;19;20018;-61
2022/05/08 08:36:15;;;;;;;12.73;3.60;;;;;;;12.89;58.31;102811.59;7389801;19;20023;-60
2022/05/08 08:38:44;;;;;;;12.82;3.60;;;;;;;13.03;57.16;102819.19;7388876;19;20025;-57
2022/05/08 08:41:17;;;;;;;13.07;3.75;;;;;;;12.73;56.26;102814.56;7382077;19;20011;-59
2022/05/08 08:49:23;;;;;;;13.68;4.70;;;;;;;13.29;55.44;102826.50;7386768;19;20021;-59
2022/05/08 08:51:52;;;;;;;13.70;3.92;;;;;;;12.98;57.76;102821.91;7387643;19;20022;-60
2022/05/08 08:54:23;;;;;;;11.98;4.18;;;;;;;12.63;58.04;102823.56;7389420;19;20080;-61
2022/05/08 08:56:52;;;;;;;11.75;3.65;;;;;;;13.35;56.38;102828.16;7389123;19;20018;-60
2022/05/08 08:59:21;;;;;;;11.52;3.92;;;;;;;13.22;55.21;102835.44;7388012;19;20014;-58
2022/05/08 09:01:53;;;;;;;14.02;4.35;;;;;;;13.06;53.98;102827.88;7386927;19;20022;-61
2022/05/08 09:04:22;;;;;;;12.93;3.88;;;;;;;13.29;54.99;102823.84;7392125;19;20018;-59
2022/05/08 09:06:51;;;;;;;11.95;3.78;;;;;;;13.38;53.85;102828.06;7392817;19;20007;-61
2022/05/08 09:09:31;;;;;;;13.10;3.97;;;;;;;13.56;54.22;102819.72;7387522;19;20019;-60
2022/05/08 09:12:05;;;;;;;13.40;4.32;;;;;;;13.90;53.77;102824.16;7391247;19;20047;-60
2022/05/08 09:14:35;;;;;;;11.13;4.00;;;;;;;13.24;53.01;102820.47;7390042;19;20018;-60
2022/05/08 09:17:08;;;;;;;11.77;3.42;;;;;;;13.83;52.09;102819.94;7389049;19;20114;-60
2022/05/08 09:19:40;;;;;;;13.93;3.80;;;;;;;14.05;52.15;102824.66;7388181;19;20025;-61
2022/05/08 09:22:16;;;;;;;10.73;3.50;;;;;;;13.88;51.16;102819.81;7388659;19;20051;-60
2022/05/08 09:24:53;;;;;;;15.68;3.85;;;;;;;13.63;53.93;102807.28;7388299;19;20025;-60
2022/05/08 09:27:22;;;;;;;17.80;3.78;;;;;;;14.00;51.10;102812.44;7388738;19;20344;-61
2022/05/08 09:29:51;;;;;;;10.38;3.60;;;;;;;13.98;51.94;102809.00;7388556;19;20019;-61
2022/05/08 09:35:01;;;;;;;15.48;4.28;;;;;;;14.57;50.75;102811.78;7399282;19;20018;-58
2022/05/08 09:37:30;;;;;;;9.18;3.22;;;;;;;14.62;50.90;102815.19;7395166;19;20029;-60
2022/05/08 09:40:17;;;;;;;10.80;3.40;;;;;;;14.32;51.80;102808.06;7394005;19;20025;-60
2022/05/08 09:42:46;;;;;;;12.25;4.18;;;;;;;14.87;50.74;102805.63;7394248;19;20090;-59
2022/05/08 09:45:16;;;;;;;13.38;4.07;;;;;;;15.00;49.94;102795.56;7394722;19;20015;-57
2022/05/08 09:47:46;;;;;;;9.75;3.13;;;;;;;15.09;50.62;102793.50;7394970;19;20014;-61
2022/05/08 09:50:19;;;;;;;10.77;3.38;;;;;;;15.05;50.08;102798.91;7394407;19;20033;-60
2022/05/08 09:52:49;;;;;;;10.93;3.63;;;;;;;14.86;49.33;102795.13;7391882;19;20018;-60
2022/05/08 09:55:21;;;;;;;10.35;3.20;;;;;;;15.29;48.92;102798.16;7393156;19;20022;-61
2022/05/08 09:57:50;;;;;;;12.25;4.05;;;;;;;14.88;48.91;102785.38;7394813;19;20029;-60
2022/05/08 10:00:19;;;;;;;24.42;6.22;;;;;;;15.15;48.06;102795.97;7393686;19;20009;-56
2022/05/08 10:02:49;;;;;;;16.60;4.38;;;;;;;15.30;45.91;102795.50;7394443;19;20022;-57
2022/05/08 10:05:21;;;;;;;11.60;3.30;;;;;;;15.73;46.39;102788.75;7392638;19;20015;-61
2022/05/08 10:07:51;;;;;;;9.85;3.20;;;;;;;15.37;47.26;102785.56;7392090;19;20018;-60
2022/05/08 10:15:46;;;;;;;11.27;3.80;;;;;;;15.29;47.01;102783.19;7394404;19;20044;-60
2022/05/08 10:18:25;;;;;;;11.65;3.65;;;;;;;15.45;46.36;102787.97;7393547;19;20110;-60
2022/05/08 10:21:08;;;;;;;10.95;3.45;;;;;;;15.91;44.71;102789.06;7392625;19;20022;-59
2022/05/08 10:23:37;;;;;;;;;;;;;;;15.69;45.24;102789.78;7392734;19;20539;-59
2022/05/08 10:26:16;;;;;;;10.10;3.13;;;;;;;15.70;45.16;102796.81;7390621;19;20349;-60
2022/05/08 10:29:14;;;;;;;12.88;3.40;;;;;;;15.60;45.27;102794.50;7392485;19;20039;-59
2022/05/08 10:31:44;;;;;;;10.85;3.63;;;;;;;15.86;44.70;102789.22;7393951;19;20019;-61
2022/05/08 10:34:14;;;;;;;9.18;2.80;;;;;;;15.48;43.42;102785.22;7391612;19;20018;-60
2022/05/08 10:37:28;;;;;;;10.05;3.00;;;;;;;16.18;45.15;102781.06;7392254;19;20014;-58
2022/05/08 10:39:57;;;;;;;8.98;3.22;;;;;;;16.27;44.13;102776.28;7392088;19;20377;-59
2022/05/08 10:42:45;;;;;;;10.10;3.58;;;;;;;15.40;44.79;102775.78;7391222;19;20024;-59
2022/05/08 10:45:40;;;;;;;10.00;3.40;;;;;;;14.98;43.75;102767.47;7392634;19;20018;-59
2022/05/08 10:48:13;;;;;;;12.45;3.63;;;;;;;15.42;46.00;102765.16;7391652;19;20019;-59
2022/05/08 10:50:44;;;;;;;7.72;3.15;;;;;;;16.36;43.55;102764.53;7391871;19;20021;-59
2022/05/08 10:53:29;;;;;;;9.30;2.97;;;;;;;16.38;41.77;102767.94;7391571;19;20029;-59
2022/05/08 10:56:06;;;;;;;6.43;3.05;;;;;;;15.99;42.73;102763.22;7393722;19;20332;-58
2022/05/08 10:58:36;;;;;;;6.72;3.05;;;;;;;16.97;42.87;102759.56;7393922;19;20014;-58
2022/05/08 11:01:07;;;;;;;10.15;3.33;;;;;;;16.64;42.63;102763.44;7391308;19;20014;-60
2022/05/08 11:03:38;;;;;;;6.95;2.85;;;;;;;16.92;42.70;102771.22;7391677;19;20026;-60
2022/05/08 11:06:08;;;;;;;8.23;3.15;;;;;;;15.85;43.21;102757.56;7392466;19;20019;-60
2022/05/08 11:08:39;;;;;;;10.35;3.10;;;;;;;16.44;44.68;102758.91;7393552;19;20026;-59
2022/05/08 11:11:10;;;;;;;8.63;3.00;;;;;;;16.64;43.31;102752.88;7394963;19;20014;-59
2022/05/08 11:13:47;;;;;;;9.85;3.03;;;;;;;16.91;41.71;102760.69;7393705;19;20497;-59
2022/05/08 11:16:33;;;;;;;8.60;3.10;;;;;;;17.04;41.43;102759.25;7394523;19;20114;-60
2022/05/08 11:19:03;;;;;;;9.63;3.65;;;;;;;16.73;41.12;102762.22;7392603;19;20476;-59
2022/05/08 11:21:32;;;;;;;11.15;3.58;;;;;;;16.46;40.44;102759.72;7392336;19;20082;-57
2022/05/08 11:24:04;;;;;;;8.07;3.10;;;;;;;17.36;40.25;102753.56;7391212;19;20485;-60
2022/05/08 11:26:35;;;;;;;9.67;2.97;;;;;;;17.35;39.13;102754.47;7391472;19;20336;-58
2022/05/08 11:29:05;;;;;;;9.70;3.00;;;;;;;17.83;39.50;102755.94;7386889;19;20022;-61
2022/05/08 11:36:03;;;;;;;9.88;2.97;;;;;;;17.37;38.13;102753.47;7391195;19;20014;-60
2022/05/08 11:37:07;;;;;;;7.53;3.05;;;;;;;17.62;40.28;102755.09;7390675;19;20357;-60
2022/05/08 11:39:38;;;;;;;9.20;2.92;;;;;;;17.35;41.65;102747.41;7389753;19;20015;-65
2022/05/08 11:42:07;;;;;;;9.68;3.17;;;;;;;17.59;40.17;102760.53;7391144;19;20589;-59
2022/05/08 11:44:36;;;;;;;9.98;3.03;;;;;;;17.33;41.50;102743.09;7389754;19;20021;-59
2022/05/08 11:47:13;;;;;;;8.40;3.13;;;;;;;18.10;40.19;102753.03;7391894;19;20014;-59
2022/05/08 11:49:44;;;;;;;10.63;2.90;;;;;;;17.96;39.30;102751.84;7395176;19;20015;-58
2022/05/08 11:52:22;;;;;;;7.55;2.78;;;;;;;17.14;39.37;102750.94;7391694;19;20354;-60
2022/05/08 11:55:02;;;;;;;7.13;2.88;;;;;;;17.64;38.04;102740.00;7391623;19;20460;-60
2022/05/08 11:57:31;;;;;;;6.53;2.88;;;;;;;17.71;38.83;102735.25;7394023;19;20038;-60
2022/05/08 12:00:07;;;;;;;5.95;2.60;;;;;;;18.42;38.12;102740.91;7389430;19;20486;-60
2022/05/08 12:02:40;;;;;;;6.22;2.40;;;;;;;18.33;38.87;102744.84;7390079;19;20018;-61
2022/05/08 12:05:18;;;;;;;10.55;3.33;;;;;;;18.14;38.91;102736.03;7389853;19;20015;-60
2022/05/08 12:07:48;;;;;;;5.72;2.50;;;;;;;17.03;38.00;102733.69;7389586;19;20043;-58
2022/05/08 12:10:20;;;;;;;8.13;2.85;;;;;;;17.66;40.10;102727.50;7386801;19;20010;-60
2022/05/08 12:12:49;;;;;;;9.80;2.63;;;;;;;18.32;38.36;102724.59;7388682;19;20023;-60